Shin Chun — VRFD2 — position and weather

sailwx.info

Track history (hours):
 
Tides and Currents Weather Stations Pressure Air Temp Water Temp Dewpoint Dewpoint Depression Visibility Wind Speed Wind Dir Waves Ship Positions

Shin Chun

Last reported at 2015-May-24 04:33 UTC. Time now 2015-May-24 21:15 UTC.
Position N 26°05' E 119°32'.

Length 152 m; draft 6.4 m.

Type: Cargo ship. MMSI: 477218300.

Date/timePositionNaut miles runAvg speedWind from/ knotsBaromVisibWave heightAir tempDewpointWater temp
2015-May-24 04:33N 26°05' E 119°32'6 5.3
2015-May-24 03:29N 26°00' E 119°29'0 0.0
2015-May-24 02:29N 26°00' E 119°29'0 0.0
2015-May-24 01:29N 26°00' E 119°29'0 0.0
2015-May-24 00:29N 26°00' E 119°29'0 0.0
2015-May-23 23:33N 26°00' E 119°29'0 0.0
2015-May-23 22:33N 26°00' E 119°29'0 0.0
2015-May-23 21:33N 26°00' E 119°29'0 0.0
2015-May-23 20:33N 26°00' E 119°29'0 0.0
2015-May-23 19:33N 26°00' E 119°29'0 0.0
2015-May-23 18:33N 26°00' E 119°29'0 0.0
2015-May-23 17:33N 26°00' E 119°29'0 0.0
2015-May-23 16:33N 26°00' E 119°29'0 0.0
2015-May-23 15:33N 26°00' E 119°29'0 0.0
2015-May-23 14:33N 26°00' E 119°29'0 0.0
2015-May-23 13:33N 26°00' E 119°29'0 0.0
2015-May-23 12:33N 26°00' E 119°29'0 0.0
2015-May-23 11:33N 26°00' E 119°29'0 0.0
2015-May-23 10:33N 26°00' E 119°29'0 0.0
2015-May-23 09:33N 26°00' E 119°29'0 0.0
2015-May-23 08:33N 26°00' E 119°29'0 0.0
2015-May-23 07:33N 26°00' E 119°29'3 3.4
2015-May-23 06:34N 26°03' E 119°31'10 9.7
2015-May-23 05:34N 26°06' E 119°41'9 1.4
2015-May-22 23:07N 26°04' E 119°50'0 0.1
2015-May-22 22:34N 26°04' E 119°50'19412.0
2015-May-22 06:26N 22°50' E 120°04'910.3
2015-May-22 05:33N 22°42' E 120°08'1010.4
2015-May-22 04:33N 22°33' E 120°14'5 4.5
2015-May-22 03:28N 22°33' E 120°20'0 0.0
2015-May-22 02:22N 22°33' E 120°20'0 0.0
2015-May-22 00:10N 22°33' E 120°20'0 0.0
2015-May-21 22:28N 22°33' E 120°20'0 0.0
2015-May-21 21:28N 22°33' E 120°20'0 0.0
2015-May-21 19:28N 22°33' E 120°20'0 0.1
2015-May-21 18:22N 22°33' E 120°20'6 7.5
2015-May-21 17:33N 22°32' E 120°13'1312.9
2015-May-21 16:33N 22°41' E 120°03'1312.8
2015-May-21 15:33N 22°48' E 119°51'  
2015-May-18 19:14N 22°54' E 120°01'1014.6
2015-May-18 18:33N 22°45' E 120°06'1313.1
2015-May-18 17:33N 22°37' E 120°17'2 0.6
2015-May-18 13:19N 22°35' E 120°18'0 0.0
2015-May-18 12:31N 22°35' E 120°18'0 0.0
2015-May-18 11:13N 22°35' E 120°18'0 0.0
2015-May-18 10:24N 22°35' E 120°18'0 0.0
2015-May-18 09:30N 22°35' E 120°18'0 0.0
2015-May-18 08:30N 22°35' E 120°18'0 0.0
2015-May-18 07:30N 22°35' E 120°18'3 3.4
2015-May-18 06:33N 22°37' E 120°16'4 3.4
2015-May-18 05:29N 22°39' E 120°13'0 0.1
2015-May-18 04:29N 22°39' E 120°13'0 0.1
2015-May-18 03:29N 22°39' E 120°13'0 0.1
2015-May-18 02:29N 22°39' E 120°13'0 0.0
2015-May-18 01:29N 22°39' E 120°13'0 0.1
2015-May-18 00:23N 22°39' E 120°13'0 0.0
2015-May-17 23:23N 22°39' E 120°13'0 0.0
2015-May-17 22:23N 22°39' E 120°13'0 0.0
2015-May-17 21:29N 22°39' E 120°13'0 0.0
2015-May-17 20:29N 22°39' E 120°13'0 0.1
2015-May-17 19:33N 22°39' E 120°13'1 1.3
2015-May-17 18:33N 22°39' E 120°11'1414.1
2015-May-17 17:33N 22°50' E 120°02'19612.2
2015-May-17 01:28N 26°05' E 119°43'9 9.5
2015-May-17 00:33N 26°07' E 119°34'8 7.8
2015-May-16 23:29N 26°00' E 119°29'0 0.0
2015-May-16 22:29N 26°00' E 119°29'0 0.0
2015-May-16 21:28N 26°00' E 119°29'0 0.0
2015-May-16 20:22N 26°00' E 119°29'0 0.0
2015-May-16 19:28N 26°00' E 119°29'0 0.0
2015-May-16 18:28N 26°00' E 119°29'0 0.0
2015-May-16 17:28N 26°00' E 119°29'0 0.0
2015-May-16 16:28N 26°00' E 119°29'0 0.0
2015-May-16 15:28N 26°00' E 119°29'0 0.0
2015-May-16 14:28N 26°00' E 119°29'0 0.0
2015-May-16 13:28N 26°00' E 119°29'0 0.0
2015-May-16 12:28N 26°00' E 119°29'0 0.0
2015-May-16 11:28N 26°00' E 119°29'0 0.0
2015-May-16 10:28N 26°00' E 119°29'0 0.0
2015-May-16 09:28N 26°00' E 119°29'0 0.0
2015-May-16 08:28N 26°00' E 119°29'0 0.0
2015-May-16 07:28N 26°00' E 119°29'0 0.0
2015-May-16 06:28N 26°00' E 119°29'0 0.0
2015-May-16 05:22N 26°00' E 119°29'0 0.0
2015-May-16 04:28N 26°00' E 119°29'0 0.0
2015-May-16 03:28N 26°00' E 119°29'0 0.0
2015-May-16 02:28N 26°00' E 119°29'6 6.1
2015-May-16 01:33N 26°05' E 119°32'10 8.8
2015-May-16 00:28N 26°06' E 119°42'8 8.6
2015-May-15 23:33N 26°03' E 119°51'4 1.8
2015-May-15 21:10N 25°59' E 119°52'7415.0
2015-May-15 16:15N 24°46' E 120°01'2514.9
2015-May-15 14:33N 24°20' E 119°59'1515.0
2015-May-15 13:34N 24°05' E 119°58'1413.4
2015-May-15 12:31N 23°52' E 119°56'3014.5
2015-May-15 10:25N 23°21' E 119°55'3214.1
2015-May-15 08:09N 22°50' E 120°02'915.6
2015-May-15 07:34N 22°42' E 120°07'1110.4
2015-May-15 06:31N 22°33' E 120°15'0 0.0
2015-May-15 05:31N 22°33' E 120°15'0 0.0
2015-May-15 04:31N 22°33' E 120°15'0 0.0
2015-May-15 03:31N 22°33' E 120°15'0 0.0
2015-May-15 02:31N 22°33' E 120°15'0 0.0
2015-May-15 01:13N 22°33' E 120°15'0 0.0
2015-May-15 00:31N 22°33' E 120°15'5 4.9
2015-May-14 23:34N 22°33' E 120°20'0 0.1
2015-May-14 22:27N 22°33' E 120°20'0 0.0
2015-May-14 20:08N 22°33' E 120°20'0 0.0
2015-May-14 19:08N 22°33' E 120°20'0 0.0
2015-May-14 18:33N 22°33' E 120°20'0 0.0
2015-May-14 17:33N 22°33' E 120°20'0 0.3
2015-May-14 16:33N 22°33' E 120°19'1010.2
2015-May-14 15:33N 22°35' E 120°08'1413.9
2015-May-14 14:33N 22°44' E 119°57'1414.4
2015-May-14 13:33N 22°53' E 119°45'1913.9
2015-May-14 12:10N 23°05' E 119°28'  
Track history (hours):
 
Tides and Currents Weather Stations Pressure Air Temp Water Temp Dewpoint Dewpoint Depression Visibility Wind Speed Wind Dir Waves Ship Positions

Shin Chun

Last reported at 2015-May-24 04:33 UTC. Time now 2015-May-24 21:15 UTC.
Position N 26°05' E 119°32'.

Length 152 m; draft 6.4 m.

Type: Cargo ship. MMSI: 477218300.

Date/timePositionNaut miles runAvg speedWind from/ knotsBaromVisibWave heightAir tempDewpointWater temp
2015-May-24 04:33N 26°05' E 119°32'6 5.3
2015-May-24 03:29N 26°00' E 119°29'0 0.0
2015-May-24 02:29N 26°00' E 119°29'0 0.0
2015-May-24 01:29N 26°00' E 119°29'0 0.0
2015-May-24 00:29N 26°00' E 119°29'0 0.0
2015-May-23 23:33N 26°00' E 119°29'0 0.0
2015-May-23 22:33N 26°00' E 119°29'0 0.0
2015-May-23 21:33N 26°00' E 119°29'0 0.0
2015-May-23 20:33N 26°00' E 119°29'0 0.0
2015-May-23 19:33N 26°00' E 119°29'0 0.0
2015-May-23 18:33N 26°00' E 119°29'0 0.0
2015-May-23 17:33N 26°00' E 119°29'0 0.0
2015-May-23 16:33N 26°00' E 119°29'0 0.0
2015-May-23 15:33N 26°00' E 119°29'0 0.0
2015-May-23 14:33N 26°00' E 119°29'0 0.0
2015-May-23 13:33N 26°00' E 119°29'0 0.0
2015-May-23 12:33N 26°00' E 119°29'0 0.0
2015-May-23 11:33N 26°00' E 119°29'0 0.0
2015-May-23 10:33N 26°00' E 119°29'0 0.0
2015-May-23 09:33N 26°00' E 119°29'0 0.0
2015-May-23 08:33N 26°00' E 119°29'0 0.0
2015-May-23 07:33N 26°00' E 119°29'3 3.4
2015-May-23 06:34N 26°03' E 119°31'10 9.7
2015-May-23 05:34N 26°06' E 119°41'9 1.4
2015-May-22 23:07N 26°04' E 119°50'0 0.1
2015-May-22 22:34N 26°04' E 119°50'19412.0
2015-May-22 06:26N 22°50' E 120°04'910.3
2015-May-22 05:33N 22°42' E 120°08'1010.4
2015-May-22 04:33N 22°33' E 120°14'5 4.5
2015-May-22 03:28N 22°33' E 120°20'0 0.0
2015-May-22 02:22N 22°33' E 120°20'0 0.0
2015-May-22 00:10N 22°33' E 120°20'0 0.0
2015-May-21 22:28N 22°33' E 120°20'0 0.0
2015-May-21 21:28N 22°33' E 120°20'0 0.0
2015-May-21 19:28N 22°33' E 120°20'0 0.1
2015-May-21 18:22N 22°33' E 120°20'6 7.5
2015-May-21 17:33N 22°32' E 120°13'1312.9
2015-May-21 16:33N 22°41' E 120°03'1312.8
2015-May-21 15:33N 22°48' E 119°51'  
2015-May-18 19:14N 22°54' E 120°01'1014.6
2015-May-18 18:33N 22°45' E 120°06'1313.1
2015-May-18 17:33N 22°37' E 120°17'2 0.6
2015-May-18 13:19N 22°35' E 120°18'0 0.0
2015-May-18 12:31N 22°35' E 120°18'0 0.0
2015-May-18 11:13N 22°35' E 120°18'0 0.0
2015-May-18 10:24N 22°35' E 120°18'0 0.0
2015-May-18 09:30N 22°35' E 120°18'0 0.0
2015-May-18 08:30N 22°35' E 120°18'0 0.0
2015-May-18 07:30N 22°35' E 120°18'3 3.4
2015-May-18 06:33N 22°37' E 120°16'4 3.4
2015-May-18 05:29N 22°39' E 120°13'0 0.1
2015-May-18 04:29N 22°39' E 120°13'0 0.1
2015-May-18 03:29N 22°39' E 120°13'0 0.1
2015-May-18 02:29N 22°39' E 120°13'0 0.0
2015-May-18 01:29N 22°39' E 120°13'0 0.1
2015-May-18 00:23N 22°39' E 120°13'0 0.0
2015-May-17 23:23N 22°39' E 120°13'0 0.0
2015-May-17 22:23N 22°39' E 120°13'0 0.0
2015-May-17 21:29N 22°39' E 120°13'0 0.0
2015-May-17 20:29N 22°39' E 120°13'0 0.1
2015-May-17 19:33N 22°39' E 120°13'1 1.3
2015-May-17 18:33N 22°39' E 120°11'1414.1
2015-May-17 17:33N 22°50' E 120°02'19612.2
2015-May-17 01:28N 26°05' E 119°43'9 9.5
2015-May-17 00:33N 26°07' E 119°34'8 7.8
2015-May-16 23:29N 26°00' E 119°29'0 0.0
2015-May-16 22:29N 26°00' E 119°29'0 0.0
2015-May-16 21:28N 26°00' E 119°29'0 0.0
2015-May-16 20:22N 26°00' E 119°29'0 0.0
2015-May-16 19:28N 26°00' E 119°29'0 0.0
2015-May-16 18:28N 26°00' E 119°29'0 0.0
2015-May-16 17:28N 26°00' E 119°29'0 0.0
2015-May-16 16:28N 26°00' E 119°29'0 0.0
2015-May-16 15:28N 26°00' E 119°29'0 0.0
2015-May-16 14:28N 26°00' E 119°29'0 0.0
2015-May-16 13:28N 26°00' E 119°29'0 0.0
2015-May-16 12:28N 26°00' E 119°29'0 0.0
2015-May-16 11:28N 26°00' E 119°29'0 0.0
2015-May-16 10:28N 26°00' E 119°29'0 0.0
2015-May-16 09:28N 26°00' E 119°29'0 0.0
2015-May-16 08:28N 26°00' E 119°29'0 0.0
2015-May-16 07:28N 26°00' E 119°29'0 0.0
2015-May-16 06:28N 26°00' E 119°29'0 0.0
2015-May-16 05:22N 26°00' E 119°29'0 0.0
2015-May-16 04:28N 26°00' E 119°29'0 0.0
2015-May-16 03:28N 26°00' E 119°29'0 0.0
2015-May-16 02:28N 26°00' E 119°29'6 6.1
2015-May-16 01:33N 26°05' E 119°32'10 8.8
2015-May-16 00:28N 26°06' E 119°42'8 8.6
2015-May-15 23:33N 26°03' E 119°51'4 1.8
2015-May-15 21:10N 25°59' E 119°52'7415.0
2015-May-15 16:15N 24°46' E 120°01'2514.9
2015-May-15 14:33N 24°20' E 119°59'1515.0
2015-May-15 13:34N 24°05' E 119°58'1413.4
2015-May-15 12:31N 23°52' E 119°56'3014.5
2015-May-15 10:25N 23°21' E 119°55'3214.1
2015-May-15 08:09N 22°50' E 120°02'915.6
2015-May-15 07:34N 22°42' E 120°07'1110.4
2015-May-15 06:31N 22°33' E 120°15'0 0.0
2015-May-15 05:31N 22°33' E 120°15'0 0.0
2015-May-15 04:31N 22°33' E 120°15'0 0.0
2015-May-15 03:31N 22°33' E 120°15'0 0.0
2015-May-15 02:31N 22°33' E 120°15'0 0.0
2015-May-15 01:13N 22°33' E 120°15'0 0.0
2015-May-15 00:31N 22°33' E 120°15'5 4.9
2015-May-14 23:34N 22°33' E 120°20'0 0.1
2015-May-14 22:27N 22°33' E 120°20'0 0.0
2015-May-14 20:08N 22°33' E 120°20'0 0.0
2015-May-14 19:08N 22°33' E 120°20'0 0.0
2015-May-14 18:33N 22°33' E 120°20'0 0.0
2015-May-14 17:33N 22°33' E 120°20'0 0.3
2015-May-14 16:33N 22°33' E 120°19'1010.2
2015-May-14 15:33N 22°35' E 120°08'1413.9
2015-May-14 14:33N 22°44' E 119°57'1414.4
2015-May-14 13:33N 22°53' E 119°45'1913.9
2015-May-14 12:10N 23°05' E 119°28'  

Dump ship's entire track history